sensor_id;sensor_type;location;lat;lon;timestamp;P1;durP1;ratioP1;P2;durP2;ratioP2
76021;SDS011;64718;52.124;6.226;2023-04-03T00:01:01;3.10;;;1.38;;
76021;SDS011;64718;52.124;6.226;2023-04-03T00:03:28;2.65;;;1.52;;
76021;SDS011;64718;52.124;6.226;2023-04-03T00:05:55;1.45;;;1.30;;
76021;SDS011;64718;52.124;6.226;2023-04-03T00:08:23;2.03;;;1.58;;
76021;SDS011;64718;52.124;6.226;2023-04-03T00:10:50;2.85;;;1.42;;
76021;SDS011;64718;52.124;6.226;2023-04-03T00:13:17;2.38;;;1.50;;
76021;SDS011;64718;52.124;6.226;2023-04-03T00:15:44;2.08;;;1.30;;
76021;SDS011;64718;52.124;6.226;2023-04-03T00:18:11;2.65;;;1.95;;
76021;SDS011;64718;52.124;6.226;2023-04-03T00:20:37;2.20;;;1.35;;
76021;SDS011;64718;52.124;6.226;2023-04-03T00:23:04;1.55;;;1.35;;
76021;SDS011;64718;52.124;6.226;2023-04-03T00:25:32;2.35;;;1.90;;
76021;SDS011;64718;52.124;6.226;2023-04-03T00:28:00;2.28;;;1.48;;
76021;SDS011;64718;52.124;6.226;2023-04-03T00:30:26;2.72;;;1.55;;
76021;SDS011;64718;52.124;6.226;2023-04-03T00:32:53;4.45;;;1.73;;
76021;SDS011;64718;52.124;6.226;2023-04-03T00:35:20;3.42;;;1.77;;
76021;SDS011;64718;52.124;6.226;2023-04-03T00:37:47;3.30;;;1.58;;
76021;SDS011;64718;52.124;6.226;2023-04-03T00:40:16;1.63;;;1.27;;
76021;SDS011;64718;52.124;6.226;2023-04-03T00:42:45;4.22;;;1.80;;
76021;SDS011;64718;52.124;6.226;2023-04-03T00:45:25;1.65;;;1.52;;
76021;SDS011;64718;52.124;6.226;2023-04-03T00:47:54;2.55;;;1.50;;
76021;SDS011;64718;52.124;6.226;2023-04-03T00:50:21;1.33;;;0.85;;
76021;SDS011;64718;52.124;6.226;2023-04-03T00:52:49;1.88;;;1.50;;
76021;SDS011;64718;52.124;6.226;2023-04-03T00:55:15;1.83;;;1.50;;
76021;SDS011;64718;52.124;6.226;2023-04-03T00:57:42;2.65;;;1.40;;
76021;SDS011;64718;52.124;6.226;2023-04-03T01:00:13;4.43;;;1.33;;
76021;SDS011;64718;52.124;6.226;2023-04-03T01:02:42;3.08;;;1.42;;
76021;SDS011;64718;52.124;6.226;2023-04-03T01:05:09;3.28;;;1.60;;
76021;SDS011;64718;52.124;6.226;2023-04-03T01:07:35;2.00;;;1.23;;
76021;SDS011;64718;52.124;6.226;2023-04-03T01:10:03;3.90;;;3.60;;
76021;SDS011;64718;52.124;6.226;2023-04-03T01:12:34;2.60;;;1.90;;
76021;SDS011;64718;52.124;6.226;2023-04-03T01:15:03;2.45;;;2.15;;
76021;SDS011;64718;52.124;6.226;2023-04-03T01:17:34;1.88;;;1.33;;
76021;SDS011;64718;52.124;6.226;2023-04-03T01:20:20;3.92;;;1.80;;
76021;SDS011;64718;52.124;6.226;2023-04-03T01:23:06;3.60;;;1.58;;
76021;SDS011;64718;52.124;6.226;2023-04-03T01:25:44;2.25;;;1.50;;
76021;SDS011;64718;52.124;6.226;2023-04-03T01:28:13;3.08;;;1.63;;
76021;SDS011;64718;52.124;6.226;2023-04-03T01:30:43;1.83;;;1.48;;
76021;SDS011;64718;52.124;6.226;2023-04-03T01:33:15;2.47;;;2.28;;
76021;SDS011;64718;52.124;6.226;2023-04-03T01:35:41;3.35;;;2.33;;
76021;SDS011;64718;52.124;6.226;2023-04-03T01:38:08;1.60;;;1.42;;
76021;SDS011;64718;52.124;6.226;2023-04-03T01:40:35;3.40;;;1.88;;
76021;SDS011;64718;52.124;6.226;2023-04-03T01:43:02;1.52;;;1.25;;
76021;SDS011;64718;52.124;6.226;2023-04-03T01:45:28;2.35;;;1.20;;
76021;SDS011;64718;52.124;6.226;2023-04-03T01:47:55;2.95;;;1.52;;
76021;SDS011;64718;52.124;6.226;2023-04-03T01:50:22;3.00;;;1.45;;
76021;SDS011;64718;52.124;6.226;2023-04-03T01:52:49;2.83;;;1.35;;
76021;SDS011;64718;52.124;6.226;2023-04-03T01:55:16;1.48;;;1.38;;
76021;SDS011;64718;52.124;6.226;2023-04-03T01:57:42;2.92;;;1.92;;
76021;SDS011;64718;52.124;6.226;2023-04-03T02:00:09;2.55;;;2.35;;
76021;SDS011;64718;52.124;6.226;2023-04-03T02:02:37;4.05;;;1.73;;
76021;SDS011;64718;52.124;6.226;2023-04-03T02:05:03;2.00;;;1.83;;
76021;SDS011;64718;52.124;6.226;2023-04-03T02:07:32;2.58;;;1.88;;
76021;SDS011;64718;52.124;6.226;2023-04-03T02:09:58;3.13;;;1.90;;
76021;SDS011;64718;52.124;6.226;2023-04-03T02:12:25;1.92;;;1.73;;
76021;SDS011;64718;52.124;6.226;2023-04-03T02:14:51;4.68;;;2.60;;
76021;SDS011;64718;52.124;6.226;2023-04-03T02:17:18;2.63;;;1.98;;
76021;SDS011;64718;52.124;6.226;2023-04-03T02:19:44;4.10;;;2.13;;
76021;SDS011;64718;52.124;6.226;2023-04-03T02:22:11;4.20;;;2.40;;
76021;SDS011;64718;52.124;6.226;2023-04-03T02:24:39;3.47;;;1.75;;
76021;SDS011;64718;52.124;6.226;2023-04-03T02:27:06;4.97;;;2.63;;
76021;SDS011;64718;52.124;6.226;2023-04-03T02:29:33;3.88;;;1.13;;
76021;SDS011;64718;52.124;6.226;2023-04-03T02:31:59;2.53;;;2.10;;
76021;SDS011;64718;52.124;6.226;2023-04-03T02:34:26;1.98;;;1.67;;
76021;SDS011;64718;52.124;6.226;2023-04-03T02:37:00;2.60;;;1.48;;
76021;SDS011;64718;52.124;6.226;2023-04-03T02:39:27;2.58;;;1.50;;
76021;SDS011;64718;52.124;6.226;2023-04-03T02:41:53;3.97;;;1.33;;
76021;SDS011;64718;52.124;6.226;2023-04-03T02:44:20;3.75;;;1.73;;
76021;SDS011;64718;52.124;6.226;2023-04-03T02:46:46;2.53;;;1.40;;
76021;SDS011;64718;52.124;6.226;2023-04-03T02:49:13;2.97;;;1.10;;
76021;SDS011;64718;52.124;6.226;2023-04-03T02:51:40;2.45;;;1.13;;
76021;SDS011;64718;52.124;6.226;2023-04-03T02:54:08;3.22;;;2.50;;
76021;SDS011;64718;52.124;6.226;2023-04-03T02:56:35;1.92;;;1.35;;
76021;SDS011;64718;52.124;6.226;2023-04-03T02:59:01;3.88;;;1.05;;
76021;SDS011;64718;52.124;6.226;2023-04-03T03:01:28;3.25;;;1.38;;
76021;SDS011;64718;52.124;6.226;2023-04-03T03:03:57;4.95;;;1.30;;
76021;SDS011;64718;52.124;6.226;2023-04-03T03:06:24;4.65;;;1.70;;
76021;SDS011;64718;52.124;6.226;2023-04-03T03:08:51;2.75;;;1.33;;
76021;SDS011;64718;52.124;6.226;2023-04-03T03:11:19;3.38;;;1.25;;
76021;SDS011;64718;52.124;6.226;2023-04-03T03:13:46;4.22;;;1.23;;
76021;SDS011;64718;52.124;6.226;2023-04-03T03:16:12;2.75;;;1.35;;
76021;SDS011;64718;52.124;6.226;2023-04-03T03:18:39;3.20;;;1.42;;
76021;SDS011;64718;52.124;6.226;2023-04-03T03:21:05;2.70;;;1.55;;
76021;SDS011;64718;52.124;6.226;2023-04-03T03:23:32;3.40;;;1.58;;
76021;SDS011;64718;52.124;6.226;2023-04-03T03:26:00;1.45;;;0.95;;
76021;SDS011;64718;52.124;6.226;2023-04-03T03:28:30;4.55;;;1.45;;
76021;SDS011;64718;52.124;6.226;2023-04-03T03:30:57;7.47;;;1.60;;
76021;SDS011;64718;52.124;6.226;2023-04-03T03:33:24;2.58;;;1.08;;
76021;SDS011;64718;52.124;6.226;2023-04-03T03:35:51;2.60;;;1.00;;
76021;SDS011;64718;52.124;6.226;2023-04-03T03:38:19;3.83;;;1.30;;
76021;SDS011;64718;52.124;6.226;2023-04-03T03:40:46;3.42;;;1.40;;
76021;SDS011;64718;52.124;6.226;2023-04-03T03:43:13;4.07;;;1.52;;
76021;SDS011;64718;52.124;6.226;2023-04-03T03:45:41;3.60;;;1.52;;
76021;SDS011;64718;52.124;6.226;2023-04-03T03:48:08;4.15;;;1.30;;
76021;SDS011;64718;52.124;6.226;2023-04-03T03:50:34;6.60;;;1.70;;
76021;SDS011;64718;52.124;6.226;2023-04-03T03:53:01;3.20;;;1.63;;
76021;SDS011;64718;52.124;6.226;2023-04-03T03:55:28;6.30;;;1.95;;
76021;SDS011;64718;52.124;6.226;2023-04-03T03:57:54;5.80;;;1.20;;
76021;SDS011;64718;52.124;6.226;2023-04-03T04:00:21;2.55;;;1.35;;
76021;SDS011;64718;52.124;6.226;2023-04-03T04:02:49;4.72;;;1.77;;
76021;SDS011;64718;52.124;6.226;2023-04-03T04:05:15;6.70;;;1.83;;
76021;SDS011;64718;52.124;6.226;2023-04-03T04:07:42;5.45;;;1.60;;
76021;SDS011;64718;52.124;6.226;2023-04-03T04:10:08;4.20;;;1.88;;
76021;SDS011;64718;52.124;6.226;2023-04-03T04:12:35;2.72;;;2.00;;
76021;SDS011;64718;52.124;6.226;2023-04-03T04:15:02;3.40;;;1.38;;
76021;SDS011;64718;52.124;6.226;2023-04-03T04:17:29;5.47;;;1.30;;
76021;SDS011;64718;52.124;6.226;2023-04-03T04:19:57;3.72;;;1.10;;
76021;SDS011;64718;52.124;6.226;2023-04-03T04:22:24;4.20;;;1.83;;
76021;SDS011;64718;52.124;6.226;2023-04-03T04:24:50;3.17;;;1.10;;
76021;SDS011;64718;52.124;6.226;2023-04-03T04:27:18;2.13;;;0.98;;
76021;SDS011;64718;52.124;6.226;2023-04-03T04:29:44;2.90;;;1.25;;
76021;SDS011;64718;52.124;6.226;2023-04-03T04:32:11;4.43;;;1.42;;
76021;SDS011;64718;52.124;6.226;2023-04-03T04:34:37;8.68;;;1.58;;
76021;SDS011;64718;52.124;6.226;2023-04-03T04:37:05;3.85;;;1.65;;
76021;SDS011;64718;52.124;6.226;2023-04-03T04:39:32;2.80;;;1.25;;
76021;SDS011;64718;52.124;6.226;2023-04-03T04:41:58;4.22;;;1.35;;
76021;SDS011;64718;52.124;6.226;2023-04-03T04:44:25;5.95;;;1.73;;
76021;SDS011;64718;52.124;6.226;2023-04-03T04:46:51;3.70;;;1.40;;
76021;SDS011;64718;52.124;6.226;2023-04-03T04:49:18;4.75;;;1.42;;
76021;SDS011;64718;52.124;6.226;2023-04-03T04:51:45;3.35;;;1.45;;
76021;SDS011;64718;52.124;6.226;2023-04-03T04:54:13;2.40;;;1.65;;
76021;SDS011;64718;52.124;6.226;2023-04-03T04:56:39;4.93;;;1.65;;
76021;SDS011;64718;52.124;6.226;2023-04-03T04:59:06;7.47;;;1.50;;
76021;SDS011;64718;52.124;6.226;2023-04-03T05:01:32;6.15;;;2.15;;
76021;SDS011;64718;52.124;6.226;2023-04-03T05:04:00;6.65;;;1.40;;
76021;SDS011;64718;52.124;6.226;2023-04-03T05:06:27;1.55;;;1.05;;
76021;SDS011;64718;52.124;6.226;2023-04-03T05:08:55;3.60;;;1.67;;
76021;SDS011;64718;52.124;6.226;2023-04-03T05:11:23;4.35;;;3.10;;
76021;SDS011;64718;52.124;6.226;2023-04-03T05:13:50;4.85;;;1.67;;
76021;SDS011;64718;52.124;6.226;2023-04-03T05:16:17;6.45;;;1.52;;
76021;SDS011;64718;52.124;6.226;2023-04-03T05:18:43;2.80;;;1.30;;
76021;SDS011;64718;52.124;6.226;2023-04-03T05:21:10;7.82;;;1.75;;
76021;SDS011;64718;52.124;6.226;2023-04-03T05:23:36;5.28;;;3.08;;
76021;SDS011;64718;52.124;6.226;2023-04-03T05:26:03;5.60;;;1.45;;
76021;SDS011;64718;52.124;6.226;2023-04-03T05:28:32;3.50;;;1.40;;
76021;SDS011;64718;52.124;6.226;2023-04-03T05:30:58;2.97;;;1.17;;
76021;SDS011;64718;52.124;6.226;2023-04-03T05:33:25;6.40;;;1.42;;
76021;SDS011;64718;52.124;6.226;2023-04-03T05:35:52;4.97;;;1.55;;
76021;SDS011;64718;52.124;6.226;2023-04-03T05:38:19;5.95;;;1.95;;
76021;SDS011;64718;52.124;6.226;2023-04-03T05:40:46;4.32;;;0.98;;
76021;SDS011;64718;52.124;6.226;2023-04-03T05:43:12;4.30;;;1.52;;
76021;SDS011;64718;52.124;6.226;2023-04-03T05:45:40;6.25;;;1.95;;
76021;SDS011;64718;52.124;6.226;2023-04-03T05:48:07;3.63;;;1.40;;
76021;SDS011;64718;52.124;6.226;2023-04-03T05:50:33;4.95;;;1.10;;
76021;SDS011;64718;52.124;6.226;2023-04-03T05:53:00;3.17;;;1.15;;
76021;SDS011;64718;52.124;6.226;2023-04-03T05:55:30;4.30;;;1.42;;
76021;SDS011;64718;52.124;6.226;2023-04-03T05:57:56;2.13;;;1.40;;
76021;SDS011;64718;52.124;6.226;2023-04-03T06:00:23;4.47;;;1.13;;
76021;SDS011;64718;52.124;6.226;2023-04-03T06:02:51;2.97;;;1.48;;
76021;SDS011;64718;52.124;6.226;2023-04-03T06:05:17;4.80;;;1.67;;
76021;SDS011;64718;52.124;6.226;2023-04-03T06:07:44;2.42;;;1.63;;
76021;SDS011;64718;52.124;6.226;2023-04-03T06:10:11;4.38;;;1.42;;
76021;SDS011;64718;52.124;6.226;2023-04-03T06:12:38;2.65;;;1.38;;
76021;SDS011;64718;52.124;6.226;2023-04-03T06:15:05;2.10;;;1.02;;
76021;SDS011;64718;52.124;6.226;2023-04-03T06:17:33;1.58;;;0.90;;
76021;SDS011;64718;52.124;6.226;2023-04-03T06:20:01;2.75;;;1.40;;
76021;SDS011;64718;52.124;6.226;2023-04-03T06:22:28;4.35;;;1.27;;
76021;SDS011;64718;52.124;6.226;2023-04-03T06:24:55;3.83;;;1.52;;
76021;SDS011;64718;52.124;6.226;2023-04-03T06:27:22;3.80;;;1.20;;
76021;SDS011;64718;52.124;6.226;2023-04-03T06:29:49;2.78;;;1.52;;
76021;SDS011;64718;52.124;6.226;2023-04-03T06:32:16;5.03;;;1.27;;
76021;SDS011;64718;52.124;6.226;2023-04-03T06:34:42;4.18;;;1.40;;
76021;SDS011;64718;52.124;6.226;2023-04-03T06:37:11;1.10;;;0.65;;
76021;SDS011;64718;52.124;6.226;2023-04-03T06:39:41;1.95;;;1.50;;
76021;SDS011;64718;52.124;6.226;2023-04-03T06:42:08;1.90;;;1.02;;
76021;SDS011;64718;52.124;6.226;2023-04-03T06:44:34;2.25;;;1.10;;
76021;SDS011;64718;52.124;6.226;2023-04-03T06:47:01;2.38;;;1.33;;
76021;SDS011;64718;52.124;6.226;2023-04-03T06:49:28;1.75;;;1.48;;
76021;SDS011;64718;52.124;6.226;2023-04-03T06:51:54;1.55;;;1.25;;
76021;SDS011;64718;52.124;6.226;2023-04-03T06:54:23;6.63;;;1.20;;
76021;SDS011;64718;52.124;6.226;2023-04-03T06:56:50;1.52;;;1.15;;
76021;SDS011;64718;52.124;6.226;2023-04-03T06:59:16;3.30;;;1.52;;
76021;SDS011;64718;52.124;6.226;2023-04-03T07:01:43;1.42;;;1.30;;
76021;SDS011;64718;52.124;6.226;2023-04-03T07:04:09;7.63;;;1.60;;
76021;SDS011;64718;52.124;6.226;2023-04-03T07:06:36;2.42;;;1.33;;
76021;SDS011;64718;52.124;6.226;2023-04-03T07:09:03;2.00;;;0.80;;
76021;SDS011;64718;52.124;6.226;2023-04-03T07:11:31;2.03;;;1.05;;
76021;SDS011;64718;52.124;6.226;2023-04-03T07:13:57;4.05;;;1.10;;
76021;SDS011;64718;52.124;6.226;2023-04-03T07:16:24;2.47;;;1.20;;
76021;SDS011;64718;52.124;6.226;2023-04-03T07:18:50;2.67;;;1.05;;
76021;SDS011;64718;52.124;6.226;2023-04-03T07:21:17;1.70;;;1.13;;
76021;SDS011;64718;52.124;6.226;2023-04-03T07:23:43;2.13;;;0.98;;
76021;SDS011;64718;52.124;6.226;2023-04-03T07:26:10;5.25;;;2.70;;
76021;SDS011;64718;52.124;6.226;2023-04-03T07:28:38;4.38;;;1.23;;
76021;SDS011;64718;52.124;6.226;2023-04-03T07:31:07;2.92;;;1.23;;
76021;SDS011;64718;52.124;6.226;2023-04-03T07:33:38;1.85;;;1.00;;
76021;SDS011;64718;52.124;6.226;2023-04-03T07:36:06;3.53;;;1.50;;
76021;SDS011;64718;52.124;6.226;2023-04-03T07:38:33;6.28;;;1.02;;
76021;SDS011;64718;52.124;6.226;2023-04-03T07:41:00;1.92;;;1.00;;
76021;SDS011;64718;52.124;6.226;2023-04-03T07:43:27;2.40;;;1.05;;
76021;SDS011;64718;52.124;6.226;2023-04-03T07:45:54;2.63;;;2.20;;
76021;SDS011;64718;52.124;6.226;2023-04-03T07:48:22;1.88;;;1.17;;
76021;SDS011;64718;52.124;6.226;2023-04-03T07:50:49;2.97;;;1.35;;
76021;SDS011;64718;52.124;6.226;2023-04-03T07:53:16;1.85;;;0.70;;
76021;SDS011;64718;52.124;6.226;2023-04-03T07:55:45;1.20;;;0.95;;
76021;SDS011;64718;52.124;6.226;2023-04-03T07:58:13;1.70;;;1.08;;
76021;SDS011;64718;52.124;6.226;2023-04-03T08:00:41;1.42;;;1.17;;
76021;SDS011;64718;52.124;6.226;2023-04-03T08:03:10;4.13;;;1.55;;
76021;SDS011;64718;52.124;6.226;2023-04-03T08:05:37;1.15;;;0.95;;
76021;SDS011;64718;52.124;6.226;2023-04-03T08:08:05;1.27;;;1.08;;
76021;SDS011;64718;52.124;6.226;2023-04-03T08:10:32;1.00;;;0.70;;
76021;SDS011;64718;52.124;6.226;2023-04-03T08:12:59;1.15;;;0.77;;
76021;SDS011;64718;52.124;6.226;2023-04-03T08:15:27;1.17;;;0.70;;
76021;SDS011;64718;52.124;6.226;2023-04-03T08:17:53;2.33;;;0.70;;
76021;SDS011;64718;52.124;6.226;2023-04-03T08:20:22;1.23;;;1.02;;
76021;SDS011;64718;52.124;6.226;2023-04-03T08:22:48;1.48;;;0.90;;
76021;SDS011;64718;52.124;6.226;2023-04-03T08:25:15;1.85;;;0.80;;
76021;SDS011;64718;52.124;6.226;2023-04-03T08:27:42;0.93;;;0.80;;
76021;SDS011;64718;52.124;6.226;2023-04-03T08:30:09;1.67;;;1.63;;
76021;SDS011;64718;52.124;6.226;2023-04-03T08:32:36;1.00;;;0.65;;
76021;SDS011;64718;52.124;6.226;2023-04-03T08:35:03;1.17;;;0.60;;
76021;SDS011;64718;52.124;6.226;2023-04-03T08:37:31;1.58;;;0.63;;
76021;SDS011;64718;52.124;6.226;2023-04-03T08:40:01;2.35;;;0.77;;
76021;SDS011;64718;52.124;6.226;2023-04-03T08:42:32;0.73;;;0.73;;
76021;SDS011;64718;52.124;6.226;2023-04-03T08:45:08;1.65;;;1.10;;
76021;SDS011;64718;52.124;6.226;2023-04-03T08:47:38;1.02;;;0.82;;
76021;SDS011;64718;52.124;6.226;2023-04-03T08:50:11;2.38;;;2.28;;
76021;SDS011;64718;52.124;6.226;2023-04-03T08:52:41;0.90;;;0.60;;
76021;SDS011;64718;52.124;6.226;2023-04-03T08:55:14;0.63;;;0.50;;
76021;SDS011;64718;52.124;6.226;2023-04-03T08:57:48;1.60;;;1.48;;
76021;SDS011;64718;52.124;6.226;2023-04-03T09:00:17;0.63;;;0.63;;
76021;SDS011;64718;52.124;6.226;2023-04-03T09:02:46;0.75;;;0.70;;
76021;SDS011;64718;52.124;6.226;2023-04-03T09:05:15;0.88;;;0.50;;
76021;SDS011;64718;52.124;6.226;2023-04-03T09:07:45;0.93;;;0.57;;
76021;SDS011;64718;52.124;6.226;2023-04-03T09:10:14;1.63;;;0.63;;
76021;SDS011;64718;52.124;6.226;2023-04-03T09:12:42;1.25;;;0.57;;
76021;SDS011;64718;52.124;6.226;2023-04-03T09:15:16;1.70;;;0.93;;
76021;SDS011;64718;52.124;6.226;2023-04-03T09:17:49;1.00;;;0.50;;
76021;SDS011;64718;52.124;6.226;2023-04-03T09:20:24;1.00;;;0.68;;
76021;SDS011;64718;52.124;6.226;2023-04-03T09:22:58;1.33;;;0.70;;
76021;SDS011;64718;52.124;6.226;2023-04-03T09:25:25;1.73;;;0.40;;
76021;SDS011;64718;52.124;6.226;2023-04-03T09:27:57;0.60;;;0.60;;
76021;SDS011;64718;52.124;6.226;2023-04-03T09:30:26;1.92;;;1.00;;
76021;SDS011;64718;52.124;6.226;2023-04-03T09:32:54;0.82;;;0.60;;
76021;SDS011;64718;52.124;6.226;2023-04-03T09:35:23;1.58;;;0.57;;
76021;SDS011;64718;52.124;6.226;2023-04-03T09:37:51;1.77;;;0.63;;
76021;SDS011;64718;52.124;6.226;2023-04-03T09:40:33;4.22;;;1.10;;
76021;SDS011;64718;52.124;6.226;2023-04-03T09:43:18;0.47;;;0.13;;
76021;SDS011;64718;52.124;6.226;2023-04-03T09:45:50;0.25;;;0.22;;
76021;SDS011;64718;52.124;6.226;2023-04-03T09:48:18;1.70;;;0.30;;
76021;SDS011;64718;52.124;6.226;2023-04-03T09:50:53;0.65;;;0.28;;
76021;SDS011;64718;52.124;6.226;2023-04-03T09:53:26;0.10;;;0.10;;
76021;SDS011;64718;52.124;6.226;2023-04-03T09:55:56;5.00;;;0.73;;
76021;SDS011;64718;52.124;6.226;2023-04-03T09:58:26;9.25;;;3.63;;
76021;SDS011;64718;52.124;6.226;2023-04-03T10:00:55;2.40;;;0.52;;
76021;SDS011;64718;52.124;6.226;2023-04-03T10:03:24;0.55;;;0.15;;
76021;SDS011;64718;52.124;6.226;2023-04-03T10:05:55;1.10;;;0.50;;
76021;SDS011;64718;52.124;6.226;2023-04-03T10:08:24;1.08;;;0.22;;
76021;SDS011;64718;52.124;6.226;2023-04-03T10:11:07;1.70;;;0.63;;
76021;SDS011;64718;52.124;6.226;2023-04-03T10:13:36;0.93;;;0.43;;
76021;SDS011;64718;52.124;6.226;2023-04-03T10:16:15;0.22;;;0.20;;
76021;SDS011;64718;52.124;6.226;2023-04-03T10:18:45;0.15;;;0.10;;
76021;SDS011;64718;52.124;6.226;2023-04-03T10:21:16;1.83;;;0.30;;
76021;SDS011;64718;52.124;6.226;2023-04-03T10:23:50;1.02;;;0.68;;
76021;SDS011;64718;52.124;6.226;2023-04-03T10:26:26;0.30;;;0.13;;
76021;SDS011;64718;52.124;6.226;2023-04-03T10:29:01;2.92;;;0.10;;
76021;SDS011;64718;52.124;6.226;2023-04-03T10:31:33;0.50;;;0.10;;
76021;SDS011;64718;52.124;6.226;2023-04-03T10:34:11;1.52;;;0.30;;
76021;SDS011;64718;52.124;6.226;2023-04-03T10:36:47;0.90;;;0.35;;
76021;SDS011;64718;52.124;6.226;2023-04-03T10:39:20;0.65;;;0.10;;
76021;SDS011;64718;52.124;6.226;2023-04-03T10:41:58;2.85;;;0.20;;
76021;SDS011;64718;52.124;6.226;2023-04-03T10:44:31;0.75;;;0.22;;
76021;SDS011;64718;52.124;6.226;2023-04-03T10:47:08;0.28;;;0.22;;
76021;SDS011;64718;52.124;6.226;2023-04-03T10:49:43;0.57;;;0.52;;
76021;SDS011;64718;52.124;6.226;2023-04-03T10:52:17;0.38;;;0.20;;
76021;SDS011;64718;52.124;6.226;2023-04-03T10:54:49;0.40;;;0.20;;
76021;SDS011;64718;52.124;6.226;2023-04-03T10:57:27;1.02;;;0.30;;
76021;SDS011;64718;52.124;6.226;2023-04-03T10:59:56;3.70;;;0.30;;
76021;SDS011;64718;52.124;6.226;2023-04-03T11:02:26;0.55;;;0.20;;
76021;SDS011;64718;52.124;6.226;2023-04-03T11:04:55;1.85;;;0.30;;
76021;SDS011;64718;52.124;6.226;2023-04-03T11:07:26;0.70;;;0.20;;
76021;SDS011;64718;52.124;6.226;2023-04-03T11:09:57;0.60;;;0.32;;
76021;SDS011;64718;52.124;6.226;2023-04-03T11:12:33;0.88;;;0.10;;
76021;SDS011;64718;52.124;6.226;2023-04-03T11:15:11;1.00;;;0.35;;
76021;SDS011;64718;52.124;6.226;2023-04-03T11:17:41;1.58;;;0.30;;
76021;SDS011;64718;52.124;6.226;2023-04-03T11:20:14;0.50;;;0.20;;
76021;SDS011;64718;52.124;6.226;2023-04-03T11:22:45;0.93;;;0.20;;
76021;SDS011;64718;52.124;6.226;2023-04-03T11:25:18;1.50;;;0.32;;
76021;SDS011;64718;52.124;6.226;2023-04-03T11:27:48;0.73;;;0.10;;
76021;SDS011;64718;52.124;6.226;2023-04-03T11:30:19;1.38;;;0.20;;
76021;SDS011;64718;52.124;6.226;2023-04-03T11:33:05;0.50;;;0.10;;
76021;SDS011;64718;52.124;6.226;2023-04-03T11:35:43;0.40;;;0.15;;
76021;SDS011;64718;52.124;6.226;2023-04-03T11:38:14;0.55;;;0.22;;
76021;SDS011;64718;52.124;6.226;2023-04-03T11:40:47;0.70;;;0.20;;
76021;SDS011;64718;52.124;6.226;2023-04-03T11:43:26;1.42;;;0.20;;
76021;SDS011;64718;52.124;6.226;2023-04-03T11:45:55;1.00;;;0.30;;
76021;SDS011;64718;52.124;6.226;2023-04-03T11:51:38;0.85;;;0.25;;
76021;SDS011;64718;52.124;6.226;2023-04-03T11:57:22;1.25;;;0.30;;
76021;SDS011;64718;52.124;6.226;2023-04-03T12:09:34;1.00;;;0.57;;
76021;SDS011;64718;52.124;6.226;2023-04-03T12:12:30;0.65;;;0.20;;
76021;SDS011;64718;52.124;6.226;2023-04-03T12:17:46;1.85;;;0.32;;
76021;SDS011;64718;52.124;6.226;2023-04-03T12:25:51;1.52;;;0.10;;
76021;SDS011;64718;52.124;6.226;2023-04-03T12:28:25;0.88;;;0.20;;
76021;SDS011;64718;52.124;6.226;2023-04-03T12:30:53;0.28;;;0.28;;
76021;SDS011;64718;52.124;6.226;2023-04-03T12:33:23;1.92;;;0.30;;
76021;SDS011;64718;52.124;6.226;2023-04-03T12:36:03;1.40;;;0.30;;
76021;SDS011;64718;52.124;6.226;2023-04-03T12:38:41;0.98;;;0.30;;
76021;SDS011;64718;52.124;6.226;2023-04-03T12:41:26;1.25;;;0.20;;
76021;SDS011;64718;52.124;6.226;2023-04-03T12:44:08;1.90;;;0.47;;
76021;SDS011;64718;52.124;6.226;2023-04-03T12:46:48;0.65;;;0.40;;
76021;SDS011;64718;52.124;6.226;2023-04-03T12:49:26;0.60;;;0.30;;
76021;SDS011;64718;52.124;6.226;2023-04-03T12:52:03;1.25;;;0.20;;
76021;SDS011;64718;52.124;6.226;2023-04-03T12:54:32;0.73;;;0.20;;
76021;SDS011;64718;52.124;6.226;2023-04-03T12:57:11;1.52;;;0.80;;
76021;SDS011;64718;52.124;6.226;2023-04-03T12:59:39;0.80;;;0.32;;
76021;SDS011;64718;52.124;6.226;2023-04-03T13:02:10;1.50;;;0.30;;
76021;SDS011;64718;52.124;6.226;2023-04-03T13:04:52;2.08;;;0.47;;
76021;SDS011;64718;52.124;6.226;2023-04-03T13:07:24;1.65;;;0.82;;
76021;SDS011;64718;52.124;6.226;2023-04-03T13:09:57;1.10;;;0.20;;
76021;SDS011;64718;52.124;6.226;2023-04-03T13:12:25;0.60;;;0.15;;
76021;SDS011;64718;52.124;6.226;2023-04-03T13:14:52;1.20;;;0.30;;
76021;SDS011;64718;52.124;6.226;2023-04-03T13:17:21;1.38;;;0.50;;
76021;SDS011;64718;52.124;6.226;2023-04-03T13:19:48;1.10;;;0.32;;
76021;SDS011;64718;52.124;6.226;2023-04-03T13:22:19;1.65;;;0.38;;
76021;SDS011;64718;52.124;6.226;2023-04-03T13:24:55;1.23;;;0.50;;
76021;SDS011;64718;52.124;6.226;2023-04-03T13:27:25;0.68;;;0.38;;
76021;SDS011;64718;52.124;6.226;2023-04-03T13:29:53;4.00;;;0.40;;
76021;SDS011;64718;52.124;6.226;2023-04-03T13:32:23;1.65;;;0.30;;
76021;SDS011;64718;52.124;6.226;2023-04-03T13:34:52;1.70;;;0.40;;
76021;SDS011;64718;52.124;6.226;2023-04-03T13:37:20;2.10;;;0.43;;
76021;SDS011;64718;52.124;6.226;2023-04-03T13:39:58;1.00;;;0.43;;
76021;SDS011;64718;52.124;6.226;2023-04-03T13:42:30;1.27;;;1.13;;
76021;SDS011;64718;52.124;6.226;2023-04-03T13:47:46;2.22;;;0.30;;
76021;SDS011;64718;52.124;6.226;2023-04-03T13:50:15;1.95;;;0.38;;
76021;SDS011;64718;52.124;6.226;2023-04-03T13:52:44;0.63;;;0.30;;
76021;SDS011;64718;52.124;6.226;2023-04-03T13:55:19;3.90;;;0.38;;
76021;SDS011;64718;52.124;6.226;2023-04-03T13:57:54;4.05;;;0.70;;
76021;SDS011;64718;52.124;6.226;2023-04-03T14:00:31;1.80;;;0.55;;
76021;SDS011;64718;52.124;6.226;2023-04-03T14:03:03;2.38;;;0.60;;
76021;SDS011;64718;52.124;6.226;2023-04-03T14:05:39;1.80;;;0.45;;
76021;SDS011;64718;52.124;6.226;2023-04-03T14:08:05;1.52;;;0.30;;
76021;SDS011;64718;52.124;6.226;2023-04-03T14:10:33;1.08;;;0.45;;
76021;SDS011;64718;52.124;6.226;2023-04-03T14:13:01;1.45;;;0.47;;
76021;SDS011;64718;52.124;6.226;2023-04-03T14:15:28;2.17;;;0.68;;
76021;SDS011;64718;52.124;6.226;2023-04-03T14:17:57;1.23;;;0.50;;
76021;SDS011;64718;52.124;6.226;2023-04-03T14:20:25;4.00;;;1.75;;
76021;SDS011;64718;52.124;6.226;2023-04-03T14:22:52;3.05;;;0.60;;
76021;SDS011;64718;52.124;6.226;2023-04-03T14:25:19;1.90;;;0.95;;
76021;SDS011;64718;52.124;6.226;2023-04-03T14:27:50;1.73;;;1.08;;
76021;SDS011;64718;52.124;6.226;2023-04-03T14:30:19;2.53;;;1.25;;
76021;SDS011;64718;52.124;6.226;2023-04-03T14:32:48;1.35;;;0.63;;
76021;SDS011;64718;52.124;6.226;2023-04-03T14:35:15;1.42;;;0.40;;
76021;SDS011;64718;52.124;6.226;2023-04-03T14:40:11;1.88;;;1.02;;
76021;SDS011;64718;52.124;6.226;2023-04-03T14:42:41;1.70;;;0.55;;
76021;SDS011;64718;52.124;6.226;2023-04-03T14:45:10;1.38;;;0.60;;
76021;SDS011;64718;52.124;6.226;2023-04-03T14:47:39;2.10;;;0.63;;
76021;SDS011;64718;52.124;6.226;2023-04-03T14:50:11;1.95;;;0.70;;
76021;SDS011;64718;52.124;6.226;2023-04-03T14:52:42;1.90;;;0.50;;
76021;SDS011;64718;52.124;6.226;2023-04-03T14:55:11;4.15;;;0.75;;
76021;SDS011;64718;52.124;6.226;2023-04-03T14:57:40;1.70;;;0.57;;
76021;SDS011;64718;52.124;6.226;2023-04-03T15:00:07;1.38;;;0.60;;
76021;SDS011;64718;52.124;6.226;2023-04-03T15:02:39;1.88;;;0.50;;
76021;SDS011;64718;52.124;6.226;2023-04-03T15:05:07;1.23;;;0.52;;
76021;SDS011;64718;52.124;6.226;2023-04-03T15:07:37;1.73;;;0.40;;
76021;SDS011;64718;52.124;6.226;2023-04-03T15:10:14;2.92;;;0.80;;
76021;SDS011;64718;52.124;6.226;2023-04-03T15:12:43;2.42;;;0.90;;
76021;SDS011;64718;52.124;6.226;2023-04-03T15:15:12;1.65;;;0.95;;
76021;SDS011;64718;52.124;6.226;2023-04-03T15:17:40;2.22;;;0.68;;
76021;SDS011;64718;52.124;6.226;2023-04-03T15:20:10;1.77;;;0.47;;
76021;SDS011;64718;52.124;6.226;2023-04-03T15:22:40;2.08;;;1.17;;
76021;SDS011;64718;52.124;6.226;2023-04-03T15:25:07;2.45;;;1.42;;
76021;SDS011;64718;52.124;6.226;2023-04-03T15:27:34;3.00;;;1.25;;
76021;SDS011;64718;52.124;6.226;2023-04-03T15:30:02;2.38;;;0.50;;